sensor_id;sensor_type;location;lat;lon;timestamp;P1;durP1;ratioP1;P2;durP2;ratioP2
38463;SDS011;24243;51.956;5.902;2023-04-16T00:02:10;1.30;;;0.30;;
38463;SDS011;24243;51.956;5.902;2023-04-16T00:04:56;1.55;;;0.30;;
38463;SDS011;24243;51.956;5.902;2023-04-16T00:07:42;2.20;;;0.40;;
38463;SDS011;24243;51.956;5.902;2023-04-16T00:10:27;1.90;;;0.60;;
38463;SDS011;24243;51.956;5.902;2023-04-16T00:13:13;1.33;;;0.52;;
38463;SDS011;24243;51.956;5.902;2023-04-16T00:15:58;1.73;;;0.55;;
38463;SDS011;24243;51.956;5.902;2023-04-16T00:18:44;1.08;;;0.40;;
38463;SDS011;24243;51.956;5.902;2023-04-16T00:21:30;2.95;;;0.60;;
38463;SDS011;24243;51.956;5.902;2023-04-16T00:24:16;0.68;;;0.30;;
38463;SDS011;24243;51.956;5.902;2023-04-16T00:27:01;1.52;;;0.68;;
38463;SDS011;24243;51.956;5.902;2023-04-16T00:29:47;1.33;;;0.50;;
38463;SDS011;24243;51.956;5.902;2023-04-16T00:32:33;1.27;;;0.43;;
38463;SDS011;24243;51.956;5.902;2023-04-16T00:35:18;0.98;;;0.40;;
38463;SDS011;24243;51.956;5.902;2023-04-16T00:38:04;1.40;;;0.50;;
38463;SDS011;24243;51.956;5.902;2023-04-16T00:40:50;2.03;;;0.60;;
38463;SDS011;24243;51.956;5.902;2023-04-16T00:43:35;2.47;;;0.65;;
38463;SDS011;24243;51.956;5.902;2023-04-16T00:46:22;1.10;;;0.40;;
38463;SDS011;24243;51.956;5.902;2023-04-16T00:49:08;1.77;;;0.40;;
38463;SDS011;24243;51.956;5.902;2023-04-16T00:51:54;1.08;;;0.50;;
38463;SDS011;24243;51.956;5.902;2023-04-16T00:54:40;1.17;;;0.40;;
38463;SDS011;24243;51.956;5.902;2023-04-16T00:57:25;2.13;;;0.52;;
38463;SDS011;24243;51.956;5.902;2023-04-16T01:00:12;1.83;;;0.63;;
38463;SDS011;24243;51.956;5.902;2023-04-16T01:02:57;0.80;;;0.30;;
38463;SDS011;24243;51.956;5.902;2023-04-16T01:05:44;1.23;;;0.40;;
38463;SDS011;24243;51.956;5.902;2023-04-16T01:08:33;1.00;;;0.43;;
38463;SDS011;24243;51.956;5.902;2023-04-16T01:11:19;1.35;;;0.55;;
38463;SDS011;24243;51.956;5.902;2023-04-16T01:14:05;1.48;;;0.52;;
38463;SDS011;24243;51.956;5.902;2023-04-16T01:16:50;1.65;;;0.60;;
38463;SDS011;24243;51.956;5.902;2023-04-16T01:19:36;2.55;;;0.80;;
38463;SDS011;24243;51.956;5.902;2023-04-16T01:22:22;1.63;;;0.60;;
38463;SDS011;24243;51.956;5.902;2023-04-16T01:25:12;1.23;;;0.55;;
38463;SDS011;24243;51.956;5.902;2023-04-16T01:27:58;1.50;;;0.50;;
38463;SDS011;24243;51.956;5.902;2023-04-16T01:30:43;1.27;;;0.50;;
38463;SDS011;24243;51.956;5.902;2023-04-16T01:33:29;1.48;;;0.60;;
38463;SDS011;24243;51.956;5.902;2023-04-16T01:36:15;1.65;;;0.50;;
38463;SDS011;24243;51.956;5.902;2023-04-16T01:39:01;2.00;;;0.52;;
38463;SDS011;24243;51.956;5.902;2023-04-16T01:41:46;0.90;;;0.52;;
38463;SDS011;24243;51.956;5.902;2023-04-16T01:44:32;1.92;;;0.63;;
38463;SDS011;24243;51.956;5.902;2023-04-16T01:47:18;1.50;;;0.70;;
38463;SDS011;24243;51.956;5.902;2023-04-16T01:50:04;1.95;;;1.02;;
38463;SDS011;24243;51.956;5.902;2023-04-16T01:52:50;1.63;;;0.65;;
38463;SDS011;24243;51.956;5.902;2023-04-16T01:55:35;1.13;;;0.57;;
38463;SDS011;24243;51.956;5.902;2023-04-16T01:58:21;1.42;;;0.63;;
38463;SDS011;24243;51.956;5.902;2023-04-16T02:01:07;2.22;;;1.13;;
38463;SDS011;24243;51.956;5.902;2023-04-16T02:03:53;1.42;;;0.70;;
38463;SDS011;24243;51.956;5.902;2023-04-16T02:06:39;2.17;;;0.80;;
38463;SDS011;24243;51.956;5.902;2023-04-16T02:09:24;1.23;;;0.70;;
38463;SDS011;24243;51.956;5.902;2023-04-16T02:12:10;1.50;;;0.90;;
38463;SDS011;24243;51.956;5.902;2023-04-16T02:14:56;1.27;;;0.70;;
38463;SDS011;24243;51.956;5.902;2023-04-16T02:17:41;2.67;;;0.90;;
38463;SDS011;24243;51.956;5.902;2023-04-16T02:20:27;2.08;;;0.80;;
38463;SDS011;24243;51.956;5.902;2023-04-16T02:23:13;1.52;;;0.75;;
38463;SDS011;24243;51.956;5.902;2023-04-16T02:25:59;1.70;;;0.70;;
38463;SDS011;24243;51.956;5.902;2023-04-16T02:28:45;2.38;;;0.95;;
38463;SDS011;24243;51.956;5.902;2023-04-16T02:31:30;1.60;;;0.77;;
38463;SDS011;24243;51.956;5.902;2023-04-16T02:34:16;1.60;;;0.80;;
38463;SDS011;24243;51.956;5.902;2023-04-16T02:37:02;1.80;;;0.80;;
38463;SDS011;24243;51.956;5.902;2023-04-16T02:39:47;1.73;;;0.88;;
38463;SDS011;24243;51.956;5.902;2023-04-16T02:42:37;1.65;;;0.63;;
38463;SDS011;24243;51.956;5.902;2023-04-16T02:45:23;2.40;;;1.17;;
38463;SDS011;24243;51.956;5.902;2023-04-16T02:48:09;2.28;;;0.90;;
38463;SDS011;24243;51.956;5.902;2023-04-16T02:50:54;2.03;;;0.95;;
38463;SDS011;24243;51.956;5.902;2023-04-16T02:53:40;3.13;;;1.15;;
38463;SDS011;24243;51.956;5.902;2023-04-16T02:56:29;1.98;;;1.08;;
38463;SDS011;24243;51.956;5.902;2023-04-16T02:59:15;2.50;;;0.90;;
38463;SDS011;24243;51.956;5.902;2023-04-16T03:02:01;1.65;;;0.77;;
38463;SDS011;24243;51.956;5.902;2023-04-16T03:04:46;1.52;;;0.82;;
38463;SDS011;24243;51.956;5.902;2023-04-16T03:07:32;3.20;;;0.90;;
38463;SDS011;24243;51.956;5.902;2023-04-16T03:10:18;2.75;;;1.10;;
38463;SDS011;24243;51.956;5.902;2023-04-16T03:13:03;2.50;;;1.05;;
38463;SDS011;24243;51.956;5.902;2023-04-16T03:15:49;3.00;;;1.35;;
38463;SDS011;24243;51.956;5.902;2023-04-16T03:18:35;3.30;;;1.63;;
38463;SDS011;24243;51.956;5.902;2023-04-16T03:21:20;2.42;;;1.30;;
38463;SDS011;24243;51.956;5.902;2023-04-16T03:24:06;1.90;;;0.80;;
38463;SDS011;24243;51.956;5.902;2023-04-16T03:26:52;3.30;;;1.13;;
38463;SDS011;24243;51.956;5.902;2023-04-16T03:29:37;2.10;;;1.17;;
38463;SDS011;24243;51.956;5.902;2023-04-16T03:32:23;2.53;;;1.13;;
38463;SDS011;24243;51.956;5.902;2023-04-16T03:35:08;1.85;;;1.00;;
38463;SDS011;24243;51.956;5.902;2023-04-16T03:37:54;2.83;;;1.30;;
38463;SDS011;24243;51.956;5.902;2023-04-16T03:40:40;2.50;;;1.30;;
38463;SDS011;24243;51.956;5.902;2023-04-16T03:43:25;2.30;;;1.00;;
38463;SDS011;24243;51.956;5.902;2023-04-16T03:46:11;2.90;;;1.40;;
38463;SDS011;24243;51.956;5.902;2023-04-16T03:48:57;3.80;;;1.58;;
38463;SDS011;24243;51.956;5.902;2023-04-16T03:51:42;2.13;;;0.98;;
38463;SDS011;24243;51.956;5.902;2023-04-16T03:54:28;1.98;;;1.13;;
38463;SDS011;24243;51.956;5.902;2023-04-16T03:57:13;3.10;;;1.17;;
38463;SDS011;24243;51.956;5.902;2023-04-16T03:59:59;2.72;;;1.40;;
38463;SDS011;24243;51.956;5.902;2023-04-16T04:02:45;2.47;;;1.40;;
38463;SDS011;24243;51.956;5.902;2023-04-16T04:05:34;2.70;;;1.25;;
38463;SDS011;24243;51.956;5.902;2023-04-16T04:08:20;3.03;;;1.63;;
38463;SDS011;24243;51.956;5.902;2023-04-16T04:11:06;2.78;;;1.35;;
38463;SDS011;24243;51.956;5.902;2023-04-16T04:13:52;3.40;;;1.40;;
38463;SDS011;24243;51.956;5.902;2023-04-16T04:16:37;2.85;;;1.40;;
38463;SDS011;24243;51.956;5.902;2023-04-16T04:19:23;2.40;;;1.25;;
38463;SDS011;24243;51.956;5.902;2023-04-16T04:22:09;2.97;;;1.40;;
38463;SDS011;24243;51.956;5.902;2023-04-16T04:24:54;2.83;;;1.30;;
38463;SDS011;24243;51.956;5.902;2023-04-16T04:27:40;2.35;;;1.30;;
38463;SDS011;24243;51.956;5.902;2023-04-16T04:30:25;3.00;;;1.70;;
38463;SDS011;24243;51.956;5.902;2023-04-16T04:33:11;2.05;;;1.30;;
38463;SDS011;24243;51.956;5.902;2023-04-16T04:35:57;2.42;;;1.20;;
38463;SDS011;24243;51.956;5.902;2023-04-16T04:38:43;2.70;;;1.23;;
38463;SDS011;24243;51.956;5.902;2023-04-16T04:41:28;2.80;;;1.25;;
38463;SDS011;24243;51.956;5.902;2023-04-16T04:44:14;2.97;;;1.77;;
38463;SDS011;24243;51.956;5.902;2023-04-16T04:47:00;2.85;;;1.38;;
38463;SDS011;24243;51.956;5.902;2023-04-16T04:49:45;2.30;;;1.30;;
38463;SDS011;24243;51.956;5.902;2023-04-16T04:52:31;3.50;;;1.65;;
38463;SDS011;24243;51.956;5.902;2023-04-16T04:55:17;3.50;;;1.80;;
38463;SDS011;24243;51.956;5.902;2023-04-16T04:58:03;3.53;;;1.67;;
38463;SDS011;24243;51.956;5.902;2023-04-16T05:00:52;3.47;;;1.58;;
38463;SDS011;24243;51.956;5.902;2023-04-16T05:03:37;2.90;;;1.50;;
38463;SDS011;24243;51.956;5.902;2023-04-16T05:06:23;3.53;;;1.88;;
38463;SDS011;24243;51.956;5.902;2023-04-16T05:09:09;2.80;;;1.52;;
38463;SDS011;24243;51.956;5.902;2023-04-16T05:11:57;4.50;;;1.90;;
38463;SDS011;24243;51.956;5.902;2023-04-16T05:14:43;3.40;;;1.77;;
38463;SDS011;24243;51.956;5.902;2023-04-16T05:17:29;4.38;;;1.90;;
38463;SDS011;24243;51.956;5.902;2023-04-16T05:20:14;3.28;;;1.75;;
38463;SDS011;24243;51.956;5.902;2023-04-16T05:23:00;3.05;;;1.70;;
38463;SDS011;24243;51.956;5.902;2023-04-16T05:25:46;3.92;;;1.85;;
38463;SDS011;24243;51.956;5.902;2023-04-16T05:28:31;3.55;;;1.92;;
38463;SDS011;24243;51.956;5.902;2023-04-16T05:31:31;3.83;;;2.05;;
38463;SDS011;24243;51.956;5.902;2023-04-16T05:34:17;2.90;;;1.77;;
38463;SDS011;24243;51.956;5.902;2023-04-16T05:37:03;5.40;;;1.98;;
38463;SDS011;24243;51.956;5.902;2023-04-16T05:39:48;3.70;;;1.80;;
38463;SDS011;24243;51.956;5.902;2023-04-16T05:42:34;4.63;;;1.73;;
38463;SDS011;24243;51.956;5.902;2023-04-16T05:45:18;3.10;;;1.95;;
38463;SDS011;24243;51.956;5.902;2023-04-16T05:48:03;3.55;;;1.85;;
38463;SDS011;24243;51.956;5.902;2023-04-16T05:50:47;6.50;;;2.13;;
38463;SDS011;24243;51.956;5.902;2023-04-16T05:53:32;3.75;;;1.92;;
38463;SDS011;24243;51.956;5.902;2023-04-16T05:56:17;3.60;;;2.05;;
38463;SDS011;24243;51.956;5.902;2023-04-16T05:59:01;2.33;;;1.60;;
38463;SDS011;24243;51.956;5.902;2023-04-16T06:01:45;5.70;;;1.95;;
38463;SDS011;24243;51.956;5.902;2023-04-16T06:04:30;5.60;;;2.00;;
38463;SDS011;24243;51.956;5.902;2023-04-16T06:07:14;4.40;;;1.98;;
38463;SDS011;24243;51.956;5.902;2023-04-16T06:09:59;4.55;;;1.95;;
38463;SDS011;24243;51.956;5.902;2023-04-16T06:12:43;3.63;;;2.03;;
38463;SDS011;24243;51.956;5.902;2023-04-16T06:15:27;4.32;;;1.80;;
38463;SDS011;24243;51.956;5.902;2023-04-16T06:18:12;3.50;;;1.88;;
38463;SDS011;24243;51.956;5.902;2023-04-16T06:20:56;3.33;;;1.80;;
38463;SDS011;24243;51.956;5.902;2023-04-16T06:23:43;3.67;;;1.92;;
38463;SDS011;24243;51.956;5.902;2023-04-16T06:26:28;3.63;;;2.03;;
38463;SDS011;24243;51.956;5.902;2023-04-16T06:29:13;6.13;;;2.08;;
38463;SDS011;24243;51.956;5.902;2023-04-16T06:31:57;3.55;;;2.38;;
38463;SDS011;24243;51.956;5.902;2023-04-16T06:34:42;4.47;;;1.90;;
38463;SDS011;24243;51.956;5.902;2023-04-16T06:37:26;3.75;;;2.08;;
38463;SDS011;24243;51.956;5.902;2023-04-16T06:40:10;3.45;;;1.80;;
38463;SDS011;24243;51.956;5.902;2023-04-16T06:42:54;3.55;;;1.70;;
38463;SDS011;24243;51.956;5.902;2023-04-16T06:45:38;5.28;;;2.10;;
38463;SDS011;24243;51.956;5.902;2023-04-16T06:48:23;4.30;;;1.92;;
38463;SDS011;24243;51.956;5.902;2023-04-16T06:51:07;3.35;;;2.15;;
38463;SDS011;24243;51.956;5.902;2023-04-16T06:53:52;2.97;;;1.85;;
38463;SDS011;24243;51.956;5.902;2023-04-16T06:56:36;3.38;;;1.77;;
38463;SDS011;24243;51.956;5.902;2023-04-16T06:59:20;3.88;;;2.03;;
38463;SDS011;24243;51.956;5.902;2023-04-16T07:02:04;4.38;;;2.33;;
38463;SDS011;24243;51.956;5.902;2023-04-16T07:04:49;3.80;;;1.88;;
38463;SDS011;24243;51.956;5.902;2023-04-16T07:07:35;2.78;;;1.60;;
38463;SDS011;24243;51.956;5.902;2023-04-16T07:10:19;3.80;;;1.63;;
38463;SDS011;24243;51.956;5.902;2023-04-16T07:13:03;5.45;;;2.38;;
38463;SDS011;24243;51.956;5.902;2023-04-16T07:15:48;5.32;;;2.30;;
38463;SDS011;24243;51.956;5.902;2023-04-16T07:18:32;4.50;;;2.42;;
38463;SDS011;24243;51.956;5.902;2023-04-16T07:21:16;4.75;;;2.38;;
38463;SDS011;24243;51.956;5.902;2023-04-16T07:24:01;3.30;;;1.70;;
38463;SDS011;24243;51.956;5.902;2023-04-16T07:26:45;3.83;;;2.03;;
38463;SDS011;24243;51.956;5.902;2023-04-16T07:29:29;3.83;;;2.38;;
38463;SDS011;24243;51.956;5.902;2023-04-16T07:32:13;4.07;;;2.25;;
38463;SDS011;24243;51.956;5.902;2023-04-16T07:34:58;4.65;;;2.67;;
38463;SDS011;24243;51.956;5.902;2023-04-16T07:37:43;3.00;;;1.80;;
38463;SDS011;24243;51.956;5.902;2023-04-16T07:40:28;3.38;;;2.17;;
38463;SDS011;24243;51.956;5.902;2023-04-16T07:43:13;5.57;;;2.75;;
38463;SDS011;24243;51.956;5.902;2023-04-16T07:45:59;3.50;;;2.10;;
38463;SDS011;24243;51.956;5.902;2023-04-16T07:48:43;4.97;;;2.22;;
38463;SDS011;24243;51.956;5.902;2023-04-16T07:51:27;3.92;;;2.13;;
38463;SDS011;24243;51.956;5.902;2023-04-16T07:54:11;4.43;;;2.33;;
38463;SDS011;24243;51.956;5.902;2023-04-16T07:56:55;4.15;;;2.30;;
38463;SDS011;24243;51.956;5.902;2023-04-16T07:59:39;3.85;;;2.30;;
38463;SDS011;24243;51.956;5.902;2023-04-16T08:02:23;4.03;;;2.33;;
38463;SDS011;24243;51.956;5.902;2023-04-16T08:05:09;5.70;;;2.63;;
38463;SDS011;24243;51.956;5.902;2023-04-16T08:07:55;4.57;;;2.38;;
38463;SDS011;24243;51.956;5.902;2023-04-16T08:10:39;4.13;;;1.90;;
38463;SDS011;24243;51.956;5.902;2023-04-16T08:13:23;3.53;;;2.28;;
38463;SDS011;24243;51.956;5.902;2023-04-16T08:16:08;3.65;;;1.95;;
38463;SDS011;24243;51.956;5.902;2023-04-16T08:18:52;4.13;;;2.30;;
38463;SDS011;24243;51.956;5.902;2023-04-16T08:21:36;5.43;;;2.72;;
38463;SDS011;24243;51.956;5.902;2023-04-16T08:24:20;3.50;;;2.28;;
38463;SDS011;24243;51.956;5.902;2023-04-16T08:27:04;6.05;;;2.92;;
38463;SDS011;24243;51.956;5.902;2023-04-16T08:29:49;4.75;;;2.75;;
38463;SDS011;24243;51.956;5.902;2023-04-16T08:32:33;4.75;;;2.58;;
38463;SDS011;24243;51.956;5.902;2023-04-16T08:35:18;3.67;;;2.17;;
38463;SDS011;24243;51.956;5.902;2023-04-16T08:38:02;4.32;;;2.30;;
38463;SDS011;24243;51.956;5.902;2023-04-16T08:40:47;3.55;;;2.22;;
38463;SDS011;24243;51.956;5.902;2023-04-16T08:43:32;3.75;;;2.60;;
38463;SDS011;24243;51.956;5.902;2023-04-16T08:46:20;3.70;;;2.45;;
38463;SDS011;24243;51.956;5.902;2023-04-16T08:49:07;4.20;;;2.55;;
38463;SDS011;24243;51.956;5.902;2023-04-16T08:51:52;3.60;;;2.88;;
38463;SDS011;24243;51.956;5.902;2023-04-16T08:54:58;4.20;;;2.50;;
38463;SDS011;24243;51.956;5.902;2023-04-16T08:57:53;4.20;;;2.28;;
38463;SDS011;24243;51.956;5.902;2023-04-16T09:00:42;4.53;;;2.65;;
38463;SDS011;24243;51.956;5.902;2023-04-16T09:03:29;3.97;;;2.63;;
38463;SDS011;24243;51.956;5.902;2023-04-16T09:06:15;4.57;;;2.80;;
38463;SDS011;24243;51.956;5.902;2023-04-16T09:08:59;4.43;;;2.60;;
38463;SDS011;24243;51.956;5.902;2023-04-16T09:11:50;5.07;;;2.80;;
38463;SDS011;24243;51.956;5.902;2023-04-16T09:17:21;3.85;;;2.30;;
38463;SDS011;24243;51.956;5.902;2023-04-16T09:20:06;5.07;;;3.03;;
38463;SDS011;24243;51.956;5.902;2023-04-16T09:22:51;4.75;;;2.75;;
38463;SDS011;24243;51.956;5.902;2023-04-16T09:25:36;4.43;;;2.65;;
38463;SDS011;24243;51.956;5.902;2023-04-16T09:31:27;4.72;;;2.83;;
38463;SDS011;24243;51.956;5.902;2023-04-16T09:34:11;4.28;;;2.88;;
38463;SDS011;24243;51.956;5.902;2023-04-16T09:36:55;4.25;;;3.00;;
38463;SDS011;24243;51.956;5.902;2023-04-16T09:39:57;3.85;;;2.67;;
38463;SDS011;24243;51.956;5.902;2023-04-16T09:42:42;3.92;;;2.75;;
38463;SDS011;24243;51.956;5.902;2023-04-16T09:45:30;3.97;;;2.70;;
38463;SDS011;24243;51.956;5.902;2023-04-16T09:51:18;4.38;;;3.00;;
38463;SDS011;24243;51.956;5.902;2023-04-16T09:54:04;4.88;;;2.75;;
38463;SDS011;24243;51.956;5.902;2023-04-16T09:56:48;5.18;;;3.28;;
38463;SDS011;24243;51.956;5.902;2023-04-16T09:59:34;4.10;;;2.72;;
38463;SDS011;24243;51.956;5.902;2023-04-16T10:02:19;4.43;;;2.65;;
38463;SDS011;24243;51.956;5.902;2023-04-16T10:05:03;4.72;;;3.50;;
38463;SDS011;24243;51.956;5.902;2023-04-16T10:07:51;5.75;;;3.67;;
38463;SDS011;24243;51.956;5.902;2023-04-16T10:10:35;4.72;;;3.33;;
38463;SDS011;24243;51.956;5.902;2023-04-16T10:13:19;5.40;;;3.35;;
38463;SDS011;24243;51.956;5.902;2023-04-16T10:16:03;4.10;;;2.80;;
38463;SDS011;24243;51.956;5.902;2023-04-16T10:18:49;3.55;;;2.65;;
38463;SDS011;24243;51.956;5.902;2023-04-16T10:21:33;4.70;;;3.30;;
38463;SDS011;24243;51.956;5.902;2023-04-16T10:24:18;3.97;;;2.70;;
38463;SDS011;24243;51.956;5.902;2023-04-16T10:27:02;4.10;;;2.78;;
38463;SDS011;24243;51.956;5.902;2023-04-16T10:29:47;6.30;;;3.75;;
38463;SDS011;24243;51.956;5.902;2023-04-16T10:32:32;4.57;;;2.80;;
38463;SDS011;24243;51.956;5.902;2023-04-16T10:35:20;5.40;;;3.50;;
38463;SDS011;24243;51.956;5.902;2023-04-16T10:38:23;4.88;;;3.08;;
38463;SDS011;24243;51.956;5.902;2023-04-16T10:41:09;4.53;;;3.20;;
38463;SDS011;24243;51.956;5.902;2023-04-16T10:44:02;4.75;;;3.03;;
38463;SDS011;24243;51.956;5.902;2023-04-16T10:46:52;4.50;;;3.45;;
38463;SDS011;24243;51.956;5.902;2023-04-16T10:49:37;6.38;;;3.53;;
38463;SDS011;24243;51.956;5.902;2023-04-16T10:52:22;5.78;;;3.55;;
38463;SDS011;24243;51.956;5.902;2023-04-16T10:55:07;4.13;;;3.17;;
38463;SDS011;24243;51.956;5.902;2023-04-16T10:57:59;5.28;;;3.08;;
38463;SDS011;24243;51.956;5.902;2023-04-16T11:00:50;4.65;;;3.20;;
38463;SDS011;24243;51.956;5.902;2023-04-16T11:03:34;5.32;;;3.13;;
38463;SDS011;24243;51.956;5.902;2023-04-16T11:06:25;6.05;;;3.30;;
38463;SDS011;24243;51.956;5.902;2023-04-16T11:09:40;5.13;;;3.70;;
38463;SDS011;24243;51.956;5.902;2023-04-16T11:12:45;5.75;;;3.42;;
38463;SDS011;24243;51.956;5.902;2023-04-16T11:15:30;4.97;;;3.38;;
38463;SDS011;24243;51.956;5.902;2023-04-16T11:18:19;4.38;;;2.97;;
38463;SDS011;24243;51.956;5.902;2023-04-16T11:21:06;6.10;;;3.88;;
38463;SDS011;24243;51.956;5.902;2023-04-16T11:23:51;5.50;;;3.47;;
38463;SDS011;24243;51.956;5.902;2023-04-16T11:26:36;4.85;;;3.60;;
38463;SDS011;24243;51.956;5.902;2023-04-16T11:29:20;5.05;;;3.38;;
38463;SDS011;24243;51.956;5.902;2023-04-16T11:32:04;5.55;;;3.38;;
38463;SDS011;24243;51.956;5.902;2023-04-16T11:34:49;8.13;;;5.57;;
38463;SDS011;24243;51.956;5.902;2023-04-16T11:37:35;9.35;;;6.47;;
38463;SDS011;24243;51.956;5.902;2023-04-16T11:40:20;8.68;;;6.40;;
38463;SDS011;24243;51.956;5.902;2023-04-16T11:43:12;9.32;;;6.25;;
38463;SDS011;24243;51.956;5.902;2023-04-16T11:45:58;10.15;;;6.97;;
38463;SDS011;24243;51.956;5.902;2023-04-16T11:48:48;14.50;;;7.85;;
38463;SDS011;24243;51.956;5.902;2023-04-16T11:51:44;11.23;;;7.55;;
38463;SDS011;24243;51.956;5.902;2023-04-16T11:54:29;9.80;;;6.82;;
38463;SDS011;24243;51.956;5.902;2023-04-16T11:57:26;10.32;;;6.78;;
38463;SDS011;24243;51.956;5.902;2023-04-16T12:00:14;11.05;;;7.32;;
38463;SDS011;24243;51.956;5.902;2023-04-16T12:02:58;10.05;;;7.18;;
38463;SDS011;24243;51.956;5.902;2023-04-16T12:05:43;8.93;;;6.22;;
38463;SDS011;24243;51.956;5.902;2023-04-16T12:08:28;10.00;;;6.22;;
38463;SDS011;24243;51.956;5.902;2023-04-16T12:11:13;12.23;;;7.05;;
38463;SDS011;24243;51.956;5.902;2023-04-16T12:14:10;9.38;;;6.22;;
38463;SDS011;24243;51.956;5.902;2023-04-16T12:16:55;9.13;;;6.30;;
38463;SDS011;24243;51.956;5.902;2023-04-16T12:20:03;9.48;;;6.70;;
38463;SDS011;24243;51.956;5.902;2023-04-16T12:22:55;9.55;;;6.25;;
38463;SDS011;24243;51.956;5.902;2023-04-16T12:25:43;10.25;;;7.22;;
38463;SDS011;24243;51.956;5.902;2023-04-16T12:28:35;12.65;;;6.90;;
38463;SDS011;24243;51.956;5.902;2023-04-16T12:31:35;10.23;;;6.90;;
38463;SDS011;24243;51.956;5.902;2023-04-16T12:34:20;10.93;;;6.35;;
38463;SDS011;24243;51.956;5.902;2023-04-16T12:37:05;8.85;;;6.25;;
38463;SDS011;24243;51.956;5.902;2023-04-16T12:39:52;12.05;;;6.97;;
38463;SDS011;24243;51.956;5.902;2023-04-16T12:42:36;10.02;;;6.50;;
38463;SDS011;24243;51.956;5.902;2023-04-16T12:45:20;8.10;;;6.03;;
38463;SDS011;24243;51.956;5.902;2023-04-16T12:48:05;11.10;;;6.50;;
38463;SDS011;24243;51.956;5.902;2023-04-16T12:50:51;11.43;;;6.28;;
38463;SDS011;24243;51.956;5.902;2023-04-16T12:53:36;11.02;;;6.38;;
38463;SDS011;24243;51.956;5.902;2023-04-16T12:56:20;9.55;;;7.05;;
38463;SDS011;24243;51.956;5.902;2023-04-16T12:59:05;10.55;;;5.45;;
38463;SDS011;24243;51.956;5.902;2023-04-16T13:01:49;10.13;;;6.32;;
38463;SDS011;24243;51.956;5.902;2023-04-16T13:04:33;8.90;;;5.88;;
38463;SDS011;24243;51.956;5.902;2023-04-16T13:07:18;13.68;;;6.57;;
38463;SDS011;24243;51.956;5.902;2023-04-16T13:10:03;9.57;;;6.07;;
38463;SDS011;24243;51.956;5.902;2023-04-16T13:12:48;11.68;;;6.78;;
38463;SDS011;24243;51.956;5.902;2023-04-16T13:15:32;9.02;;;6.32;;
38463;SDS011;24243;51.956;5.902;2023-04-16T13:18:16;10.20;;;6.63;;
38463;SDS011;24243;51.956;5.902;2023-04-16T13:21:01;8.55;;;6.13;;
38463;SDS011;24243;51.956;5.902;2023-04-16T13:23:45;9.38;;;6.28;;
38463;SDS011;24243;51.956;5.902;2023-04-16T13:26:29;9.73;;;6.30;;
38463;SDS011;24243;51.956;5.902;2023-04-16T13:29:14;8.55;;;6.10;;
38463;SDS011;24243;51.956;5.902;2023-04-16T13:31:58;8.95;;;6.38;;
38463;SDS011;24243;51.956;5.902;2023-04-16T13:34:43;8.30;;;5.80;;
38463;SDS011;24243;51.956;5.902;2023-04-16T13:37:27;11.02;;;6.60;;
38463;SDS011;24243;51.956;5.902;2023-04-16T13:40:12;10.35;;;6.47;;
38463;SDS011;24243;51.956;5.902;2023-04-16T13:42:56;8.50;;;5.93;;
38463;SDS011;24243;51.956;5.902;2023-04-16T13:45:40;8.07;;;6.22;;
38463;SDS011;24243;51.956;5.902;2023-04-16T13:48:25;9.30;;;6.13;;
38463;SDS011;24243;51.956;5.902;2023-04-16T13:51:10;8.40;;;6.30;;
38463;SDS011;24243;51.956;5.902;2023-04-16T13:53:56;8.95;;;6.22;;
38463;SDS011;24243;51.956;5.902;2023-04-16T13:56:40;11.70;;;6.22;;
38463;SDS011;24243;51.956;5.902;2023-04-16T13:59:25;7.18;;;5.90;;
38463;SDS011;24243;51.956;5.902;2023-04-16T14:02:09;9.40;;;6.35;;
38463;SDS011;24243;51.956;5.902;2023-04-16T14:04:53;9.48;;;5.72;;
38463;SDS011;24243;51.956;5.902;2023-04-16T14:07:38;9.52;;;5.60;;
38463;SDS011;24243;51.956;5.902;2023-04-16T14:10:22;7.40;;;5.55;;
38463;SDS011;24243;51.956;5.902;2023-04-16T14:13:06;8.57;;;4.97;;
38463;SDS011;24243;51.956;5.902;2023-04-16T14:15:54;6.40;;;4.82;;
38463;SDS011;24243;51.956;5.902;2023-04-16T14:18:39;8.18;;;5.00;;
38463;SDS011;24243;51.956;5.902;2023-04-16T14:21:24;8.88;;;5.88;;
38463;SDS011;24243;51.956;5.902;2023-04-16T14:24:09;11.52;;;5.80;;
38463;SDS011;24243;51.956;5.902;2023-04-16T14:26:53;10.38;;;5.68;;
38463;SDS011;24243;51.956;5.902;2023-04-16T14:29:37;8.40;;;5.30;;
38463;SDS011;24243;51.956;5.902;2023-04-16T14:32:21;7.72;;;5.68;;
38463;SDS011;24243;51.956;5.902;2023-04-16T14:35:06;9.13;;;5.47;;
38463;SDS011;24243;51.956;5.902;2023-04-16T14:37:51;6.43;;;5.30;;
38463;SDS011;24243;51.956;5.902;2023-04-16T14:40:35;8.43;;;5.25;;
38463;SDS011;24243;51.956;5.902;2023-04-16T14:43:19;6.10;;;4.55;;
38463;SDS011;24243;51.956;5.902;2023-04-16T14:46:03;7.50;;;5.75;;
38463;SDS011;24243;51.956;5.902;2023-04-16T14:48:49;7.10;;;5.32;;
38463;SDS011;24243;51.956;5.902;2023-04-16T14:51:33;10.60;;;6.05;;
38463;SDS011;24243;51.956;5.902;2023-04-16T14:54:18;8.50;;;5.47;;
38463;SDS011;24243;51.956;5.902;2023-04-16T14:57:03;8.52;;;5.32;;
38463;SDS011;24243;51.956;5.902;2023-04-16T14:59:47;7.90;;;5.60;;
38463;SDS011;24243;51.956;5.902;2023-04-16T15:02:32;8.68;;;5.72;;
38463;SDS011;24243;51.956;5.902;2023-04-16T15:05:17;7.90;;;5.47;;
38463;SDS011;24243;51.956;5.902;2023-04-16T15:08:01;7.43;;;4.90;;
38463;SDS011;24243;51.956;5.902;2023-04-16T15:10:46;7.30;;;4.88;;
38463;SDS011;24243;51.956;5.902;2023-04-16T15:13:30;9.27;;;5.32;;
38463;SDS011;24243;51.956;5.902;2023-04-16T15:16:16;8.43;;;5.53;;
38463;SDS011;24243;51.956;5.902;2023-04-16T15:19:01;6.95;;;4.88;;
38463;SDS011;24243;51.956;5.902;2023-04-16T15:21:45;7.82;;;5.35;;
38463;SDS011;24243;51.956;5.902;2023-04-16T15:24:30;8.57;;;6.28;;
38463;SDS011;24243;51.956;5.902;2023-04-16T15:27:15;7.10;;;5.28;;
38463;SDS011;24243;51.956;5.902;2023-04-16T15:30:00;7.38;;;4.97;;
38463;SDS011;24243;51.956;5.902;2023-04-16T15:32:45;8.50;;;5.85;;
38463;SDS011;24243;51.956;5.902;2023-04-16T15:35:30;8.30;;;5.80;;
38463;SDS011;24243;51.956;5.902;2023-04-16T15:38:14;7.68;;;5.38;;
38463;SDS011;24243;51.956;5.902;2023-04-16T15:40:58;6.45;;;4.60;;
38463;SDS011;24243;51.956;5.902;2023-04-16T15:43:43;6.88;;;5.05;;
38463;SDS011;24243;51.956;5.902;2023-04-16T15:46:27;9.65;;;6.07;;
38463;SDS011;24243;51.956;5.902;2023-04-16T15:49:12;7.05;;;5.82;;
38463;SDS011;24243;51.956;5.902;2023-04-16T15:51:56;9.85;;;5.88;;
38463;SDS011;24243;51.956;5.902;2023-04-16T15:54:41;7.63;;;5.28;;
38463;SDS011;24243;51.956;5.902;2023-04-16T15:57:25;7.40;;;5.40;;
38463;SDS011;24243;51.956;5.902;2023-04-16T16:00:10;7.10;;;5.25;;
38463;SDS011;24243;51.956;5.902;2023-04-16T16:02:56;8.75;;;5.72;;
38463;SDS011;24243;51.956;5.902;2023-04-16T16:05:22;9.27;;;5.45;;
38463;SDS011;24243;51.956;5.902;2023-04-16T16:07:47;7.35;;;5.30;;
38463;SDS011;24243;51.956;5.902;2023-04-16T16:10:13;7.70;;;5.03;;
38463;SDS011;24243;51.956;5.902;2023-04-16T16:12:39;7.45;;;4.78;;
38463;SDS011;24243;51.956;5.902;2023-04-16T16:15:05;7.10;;;4.80;;
38463;SDS011;24243;51.956;5.902;2023-04-16T16:17:31;8.48;;;4.90;;
38463;SDS011;24243;51.956;5.902;2023-04-16T16:19:58;8.57;;;4.63;;
38463;SDS011;24243;51.956;5.902;2023-04-16T16:22:24;5.70;;;4.15;;
38463;SDS011;24243;51.956;5.902;2023-04-16T16:24:50;6.70;;;4.35;;
38463;SDS011;24243;51.956;5.902;2023-04-16T16:27:19;5.30;;;4.47;;
38463;SDS011;24243;51.956;5.902;2023-04-16T16:32:11;5.97;;;3.95;;
38463;SDS011;24243;51.956;5.902;2023-04-16T16:34:37;5.28;;;3.95;;
38463;SDS011;24243;51.956;5.902;2023-04-16T16:37:03;6.45;;;3.85;;
38463;SDS011;24243;51.956;5.902;2023-04-16T16:39:30;5.32;;;3.90;;
38463;SDS011;24243;51.956;5.902;2023-04-16T16:41:56;5.85;;;3.50;;
38463;SDS011;24243;51.956;5.902;2023-04-16T16:44:22;5.93;;;3.63;;